OEBA/ABT METAR and TAF weather

Enter ICAO airport designator
Station Type Date Time Source
OEBA METAR 2019/02/22 22:00 UTC NOAA

OEBA 222200Z 16003KT CAVOK 18/15 Q1019 NOSIG


Station Type Date Time Source
OEBA Decoded METAR 2019/02/22 22:00 UTC NOAA

Al Baha, Saudi Arabia (OEBA) 20-18N 041-38E 1662M
Feb 22, 2019 - 05:00 PM EST / 2019.02.22 2200 UTC
Wind: from the SSE (160 degrees) at 3 MPH (3 KT):0
Visibility: greater than 7 mile(s):0
Temperature: 64 F (18 C)
Dew Point: 59 F (15 C)
Relative Humidity: 82%
Pressure (altimeter): 30.09 in. Hg (1019 hPa)
ob: OEBA 222200Z 16003KT CAVOK 18/15 Q1019 NOSIG
cycle: 22

Station Type Date Time Source
OEBA TAF 2019/02/22 12:51 UTC NOAA

TAF OEBA 221100Z 2212/2318 24014G24KT 6000 SCT030 SCT080
TEMPO 2212/2220 3000 TSRA FEW025CB BKN030
BECMG 2302/2304 VRB03KT
TEMPO 2302/2306 2000 BR


Example: see airport list